createdAt,value
2017-12-24T00:02:13.379Z,9.70
2017-12-24T00:04:40.239Z,10.30
2017-12-24T00:07:07.231Z,9.68
2017-12-24T00:09:34.184Z,10.35
2017-12-24T00:12:01.092Z,8.98
2017-12-24T00:14:28.666Z,10.13
2017-12-24T00:16:55.498Z,9.93
2017-12-24T00:19:23.114Z,10.30
2017-12-24T00:21:49.960Z,9.32
2017-12-24T00:24:16.789Z,9.23
2017-12-24T00:26:43.646Z,8.90
2017-12-24T00:29:11.862Z,9.00
2017-12-24T00:31:38.725Z,7.82
2017-12-24T00:34:05.657Z,8.43
2017-12-24T00:36:32.514Z,8.15
2017-12-24T00:38:59.382Z,7.85
2017-12-24T00:41:26.247Z,8.57
2017-12-24T00:43:53.074Z,8.00
2017-12-24T00:46:19.926Z,8.00
2017-12-24T00:48:46.774Z,8.70
2017-12-24T00:51:14.337Z,8.75
2017-12-24T00:53:41.178Z,9.57
2017-12-24T00:56:08.034Z,9.60
2017-12-24T00:58:35.608Z,8.73
2017-12-24T01:01:02.494Z,8.73
2017-12-24T01:03:29.330Z,10.27
2017-12-24T01:05:56.194Z,8.95
2017-12-24T01:08:23.102Z,8.68
2017-12-24T01:10:50.646Z,9.75
2017-12-24T01:13:17.503Z,8.70
2017-12-24T01:15:44.358Z,10.10
2017-12-24T01:18:11.210Z,9.43
2017-12-24T01:20:38.046Z,8.90
2017-12-24T01:23:04.904Z,8.82
2017-12-24T01:25:31.701Z,9.18
2017-12-24T01:27:59.393Z,8.75
2017-12-24T01:30:26.246Z,9.10
2017-12-24T01:32:53.099Z,9.13
2017-12-24T01:35:19.961Z,8.95
2017-12-24T01:37:46.786Z,8.77
2017-12-24T01:40:13.622Z,9.25
2017-12-24T01:42:40.482Z,8.40
2017-12-24T01:45:07.358Z,7.57
2017-12-24T01:47:50.061Z,9.40
2017-12-24T01:50:16.938Z,8.35
2017-12-24T01:52:44.502Z,7.72
2017-12-24T01:55:11.333Z,8.05
2017-12-24T01:57:38.995Z,7.95
2017-12-24T02:00:05.868Z,7.55
2017-12-24T02:02:32.722Z,9.13
2017-12-24T02:04:59.582Z,8.40
2017-12-24T02:07:26.391Z,9.90
2017-12-24T02:09:53.258Z,8.68
2017-12-24T02:12:20.093Z,9.95
2017-12-24T02:14:46.962Z,9.15
2017-12-24T02:17:13.831Z,10.45
2017-12-24T02:19:48.221Z,8.13
2017-12-24T02:22:15.085Z,8.15
2017-12-24T02:24:42.653Z,7.15
2017-12-24T02:27:10.264Z,8.90
2017-12-24T02:29:37.110Z,8.20
2017-12-24T02:32:03.993Z,8.32
2017-12-24T02:34:31.555Z,7.90
2017-12-24T02:36:59.129Z,7.90
2017-12-24T02:39:26.002Z,7.47
2017-12-24T02:41:52.878Z,8.65
2017-12-24T02:44:19.869Z,7.57
2017-12-24T02:46:46.706Z,8.60
2017-12-24T02:49:13.554Z,7.95
2017-12-24T02:51:40.394Z,8.60
2017-12-24T02:54:07.255Z,7.97
2017-12-24T02:56:34.820Z,7.90
2017-12-24T02:59:01.701Z,6.10
2017-12-24T03:01:29.310Z,7.10
2017-12-24T03:03:56.150Z,6.80
2017-12-24T03:06:22.976Z,6.72
2017-12-24T03:08:49.843Z,6.10
2017-12-24T03:11:16.721Z,5.72
2017-12-24T03:13:43.599Z,6.60
2017-12-24T03:16:10.418Z,5.18
2017-12-24T03:18:37.271Z,4.93
2017-12-24T03:21:04.112Z,4.93
2017-12-24T03:23:30.917Z,4.72
2017-12-24T03:25:57.790Z,4.12
2017-12-24T03:28:25.379Z,3.42
2017-12-24T03:30:52.266Z,4.00
2017-12-24T03:33:19.122Z,3.33
2017-12-24T03:35:45.962Z,3.60
2017-12-24T03:38:12.782Z,3.17
2017-12-24T03:40:39.649Z,3.30
2017-12-24T03:43:06.489Z,3.75
2017-12-24T03:45:33.333Z,3.40
2017-12-24T03:48:00.195Z,3.30
2017-12-24T03:50:27.060Z,4.28
2017-12-24T03:52:54.623Z,3.80
2017-12-24T03:55:21.469Z,3.42
2017-12-24T03:57:48.307Z,3.90
2017-12-24T04:00:15.151Z,3.90
2017-12-24T04:02:42.027Z,3.70
2017-12-24T04:05:08.871Z,3.62
2017-12-24T04:07:35.706Z,3.00
2017-12-24T04:10:02.563Z,3.58
2017-12-24T04:12:36.126Z,3.80
2017-12-24T04:15:02.994Z,3.40
2017-12-24T04:17:29.822Z,2.97
2017-12-24T04:19:56.666Z,2.75
2017-12-24T04:22:23.532Z,3.15
2017-12-24T04:24:50.339Z,3.53
2017-12-24T04:27:17.174Z,3.17
2017-12-24T04:29:44.788Z,3.33
2017-12-24T04:32:11.655Z,3.70
2017-12-24T04:34:38.507Z,4.12
2017-12-24T04:37:06.062Z,3.95
2017-12-24T04:39:34.474Z,3.85
2017-12-24T04:42:01.337Z,4.37
2017-12-24T04:44:28.182Z,3.08
2017-12-24T04:46:54.990Z,3.58
2017-12-24T04:49:22.601Z,3.30
2017-12-24T04:51:49.457Z,3.45
2017-12-24T04:54:16.339Z,3.95
2017-12-24T04:56:43.899Z,3.33
2017-12-24T04:59:11.519Z,5.12
2017-12-24T05:01:38.358Z,5.25
2017-12-24T05:04:05.227Z,5.90
2017-12-24T05:06:32.831Z,5.65
2017-12-24T05:08:59.661Z,3.60
2017-12-24T05:11:26.548Z,3.40
2017-12-24T05:13:53.376Z,4.00
2017-12-24T05:16:20.222Z,3.83
2017-12-24T05:18:47.106Z,3.25
2017-12-24T05:21:13.914Z,3.87
2017-12-24T05:23:40.778Z,3.50
2017-12-24T05:26:07.605Z,3.08
2017-12-24T05:28:34.438Z,3.80
2017-12-24T05:31:01.342Z,2.85
2017-12-24T05:33:28.298Z,2.97
2017-12-24T05:35:55.153Z,3.90
2017-12-24T05:38:22.034Z,3.10
2017-12-24T05:40:48.880Z,3.60
2017-12-24T05:43:15.763Z,3.22
2017-12-24T05:45:42.615Z,3.17
2017-12-24T05:48:09.440Z,3.33
2017-12-24T05:50:36.320Z,3.40
2017-12-24T05:53:04.660Z,3.72
2017-12-24T05:55:31.497Z,4.25
2017-12-24T05:57:59.338Z,3.50
2017-12-24T06:00:26.214Z,4.15
2017-12-24T06:02:53.074Z,3.83
2017-12-24T06:05:20.606Z,4.05
2017-12-24T06:07:48.169Z,3.70
2017-12-24T06:10:15.774Z,3.60
2017-12-24T06:12:42.650Z,4.45
2017-12-24T06:15:10.246Z,3.20
2017-12-24T06:17:37.094Z,3.47
2017-12-24T06:20:03.914Z,3.20
2017-12-24T06:22:31.522Z,3.42
2017-12-24T06:24:58.390Z,3.35
2017-12-24T06:27:25.251Z,3.55
2017-12-24T06:29:52.134Z,3.75
2017-12-24T06:32:19.029Z,4.65
2017-12-24T06:34:45.854Z,4.75
2017-12-24T06:37:12.687Z,4.20
2017-12-24T06:39:39.558Z,4.20
2017-12-24T06:42:06.451Z,4.80
2017-12-24T06:44:33.315Z,3.90
2017-12-24T06:47:00.942Z,5.18
2017-12-24T06:49:27.806Z,6.05
2017-12-24T06:51:54.731Z,5.78
2017-12-24T06:54:21.621Z,4.60
2017-12-24T06:56:48.522Z,4.55
2017-12-24T06:59:15.575Z,5.20
2017-12-24T07:01:42.518Z,4.53
2017-12-24T07:04:09.366Z,4.53
2017-12-24T07:06:36.226Z,5.75
2017-12-24T07:09:03.133Z,4.50
2017-12-24T07:11:30.023Z,5.28
2017-12-24T07:13:56.850Z,5.50
2017-12-24T07:16:23.723Z,4.55
2017-12-24T07:18:50.694Z,5.57
2017-12-24T07:21:18.339Z,3.80
2017-12-24T07:23:45.182Z,4.10
2017-12-24T07:26:12.755Z,4.53
2017-12-24T07:28:40.431Z,4.55
2017-12-24T07:31:07.266Z,4.65
2017-12-24T07:33:34.845Z,4.18
2017-12-24T07:36:01.749Z,5.37
2017-12-24T07:38:28.655Z,3.53
2017-12-24T07:40:55.551Z,4.28
2017-12-24T07:43:22.407Z,4.60
2017-12-24T07:45:50.163Z,4.00
2017-12-24T07:48:18.011Z,4.40
2017-12-24T07:50:45.317Z,5.22
2017-12-24T07:53:12.136Z,5.47
2017-12-24T07:55:39.003Z,5.80
2017-12-24T07:58:05.879Z,5.47
2017-12-24T08:00:32.779Z,6.18
2017-12-24T08:02:59.614Z,6.35
2017-12-24T08:05:27.526Z,7.03
2017-12-24T08:07:54.474Z,8.48
2017-12-24T08:10:21.447Z,8.25
2017-12-24T08:12:48.386Z,7.20
2017-12-24T08:15:16.042Z,9.27
2017-12-24T08:17:43.174Z,7.80
2017-12-24T08:20:10.092Z,9.70
2017-12-24T08:22:37.004Z,6.50
2017-12-24T08:25:03.980Z,6.70
2017-12-24T08:27:31.662Z,5.68
2017-12-24T08:29:59.435Z,5.57
2017-12-24T08:32:26.398Z,6.50
2017-12-24T08:34:53.230Z,7.00
2017-12-24T08:37:20.086Z,6.75
2017-12-24T08:39:47.104Z,8.25
2017-12-24T08:42:14.355Z,10.82
2017-12-24T08:44:41.359Z,12.15
2017-12-24T08:47:08.374Z,13.68
2017-12-24T08:49:35.209Z,16.60
2017-12-24T08:52:02.147Z,17.50
2017-12-24T08:54:29.790Z,15.05
2017-12-24T08:56:56.708Z,13.57
2017-12-24T08:59:23.582Z,12.60
2017-12-24T09:01:50.438Z,12.90
2017-12-24T09:04:17.321Z,12.82
2017-12-24T09:06:44.174Z,12.68
2017-12-24T09:09:11.051Z,11.98
2017-12-24T09:11:37.918Z,12.23
2017-12-24T09:14:05.229Z,13.50
2017-12-24T09:16:32.254Z,12.43
2017-12-24T09:18:59.845Z,14.43
2017-12-24T09:21:26.754Z,14.20
2017-12-24T09:23:53.983Z,12.80
2017-12-24T09:26:20.954Z,14.10
2017-12-24T09:28:48.570Z,14.10
2017-12-24T09:31:15.705Z,12.30
2017-12-24T09:33:42.934Z,11.30
2017-12-24T09:36:09.874Z,10.30
2017-12-24T09:38:36.734Z,11.37
2017-12-24T09:41:03.554Z,9.40
2017-12-24T09:43:30.389Z,13.07
2017-12-24T09:45:57.219Z,10.20
2017-12-24T09:48:24.822Z,11.47
2017-12-24T09:50:51.691Z,9.87
2017-12-24T09:53:18.587Z,10.57
2017-12-24T09:55:45.438Z,10.03
2017-12-24T09:58:13.003Z,9.60
2017-12-24T10:00:40.618Z,9.93
2017-12-24T10:03:07.458Z,9.80
2017-12-24T10:05:34.334Z,10.13
2017-12-24T10:08:01.222Z,8.77
2017-12-24T10:10:28.054Z,10.10
2017-12-24T10:12:54.940Z,8.50
2017-12-24T10:15:21.849Z,8.63
2017-12-24T10:17:48.671Z,9.63
2017-12-24T10:20:15.583Z,9.93
2017-12-24T10:22:43.211Z,10.67
2017-12-24T10:25:10.246Z,8.63
2017-12-24T10:27:37.446Z,8.87
2017-12-24T10:30:05.203Z,10.53
2017-12-24T10:32:32.142Z,9.53
2017-12-24T10:34:59.747Z,10.53
2017-12-24T10:37:26.614Z,10.40
2017-12-24T10:39:53.519Z,8.43
2017-12-24T10:42:20.363Z,15.10
2017-12-24T10:44:47.220Z,11.57
2017-12-24T10:47:14.246Z,19.10
2017-12-24T10:49:41.114Z,14.13
2017-12-24T10:52:07.991Z,17.83
2017-12-24T10:54:34.867Z,15.67
2017-12-24T10:57:01.710Z,13.70
2017-12-24T10:59:28.559Z,11.50
2017-12-24T11:01:55.782Z,12.83
2017-12-24T11:04:22.721Z,16.70
2017-12-24T11:06:50.434Z,11.40
2017-12-24T11:09:17.399Z,10.40
2017-12-24T11:11:45.054Z,10.33
2017-12-24T11:14:11.946Z,10.33
2017-12-24T11:16:39.822Z,11.77
2017-12-24T11:19:06.998Z,14.57
2017-12-24T11:21:33.914Z,14.93
2017-12-24T11:24:01.534Z,13.20
2017-12-24T11:26:28.590Z,12.67
2017-12-24T11:28:55.700Z,13.60
2017-12-24T11:31:22.626Z,12.00
2017-12-24T11:33:49.525Z,12.00
2017-12-24T11:36:16.583Z,12.10
2017-12-24T11:38:43.574Z,12.63
2017-12-24T11:41:10.460Z,11.53
2017-12-24T11:43:37.345Z,11.90
2017-12-24T11:46:04.231Z,12.50
2017-12-24T11:48:31.061Z,12.00
2017-12-24T11:50:57.890Z,12.37
2017-12-24T11:53:24.762Z,13.83
2017-12-24T11:55:51.591Z,13.67
2017-12-24T11:58:18.442Z,13.97
2017-12-24T12:00:45.304Z,14.13
2017-12-24T12:03:12.199Z,14.20
2017-12-24T12:05:39.095Z,15.13
2017-12-24T12:08:05.966Z,14.07
2017-12-24T12:10:32.814Z,14.27
2017-12-24T12:13:00.431Z,12.73
2017-12-24T12:15:27.324Z,12.73
2017-12-24T12:17:54.183Z,14.60
2017-12-24T12:20:21.045Z,14.10
2017-12-24T12:22:47.917Z,15.13
2017-12-24T12:25:14.774Z,14.60
2017-12-24T12:27:41.638Z,13.63
2017-12-24T12:30:09.463Z,14.77
2017-12-24T12:32:36.499Z,16.03
2017-12-24T12:35:03.407Z,14.17
2017-12-24T12:37:30.978Z,14.20
2017-12-24T12:39:58.174Z,14.70
2017-12-24T12:42:25.162Z,15.80
2017-12-24T12:44:52.750Z,14.43
2017-12-24T12:47:19.618Z,14.87
2017-12-24T12:49:46.602Z,14.23
2017-12-24T12:52:13.646Z,15.43
2017-12-24T12:54:40.791Z,16.00
2017-12-24T12:57:07.698Z,18.00
2017-12-24T12:59:34.561Z,19.90
2017-12-24T13:02:01.583Z,21.77
2017-12-24T13:04:29.371Z,20.67
2017-12-24T13:06:57.051Z,18.90
2017-12-24T13:09:23.986Z,22.07
2017-12-24T13:11:51.710Z,19.07
2017-12-24T13:14:18.599Z,18.90
2017-12-24T13:16:45.530Z,18.53
2017-12-24T13:19:13.139Z,16.57
2017-12-24T13:21:40.251Z,18.90
2017-12-24T13:24:07.197Z,18.33
2017-12-24T13:26:34.042Z,16.87
2017-12-24T13:29:01.810Z,18.73
2017-12-24T13:31:28.919Z,21.33
2017-12-24T13:33:55.832Z,19.53
2017-12-24T13:36:22.990Z,18.80
2017-12-24T13:38:49.902Z,18.97
2017-12-24T13:41:17.665Z,18.80
2017-12-24T13:43:44.740Z,19.20
2017-12-24T13:46:11.647Z,18.83
2017-12-24T13:48:39.246Z,18.30
2017-12-24T13:51:06.830Z,16.93
2017-12-24T13:53:33.703Z,18.13
2017-12-24T13:56:00.555Z,17.00
2017-12-24T13:58:28.194Z,16.50
2017-12-24T14:00:55.044Z,17.30
2017-12-24T14:03:22.322Z,16.03
2017-12-24T14:05:49.430Z,15.07
2017-12-24T14:08:16.306Z,16.97
2017-12-24T14:10:43.142Z,15.80
2017-12-24T14:13:09.988Z,16.20
2017-12-24T14:15:37.609Z,16.10
2017-12-24T14:18:04.458Z,16.53
2017-12-24T14:20:31.314Z,17.90
2017-12-24T14:22:58.451Z,18.40
2017-12-24T14:25:25.383Z,17.87
2017-12-24T14:27:52.227Z,18.40
2017-12-24T14:30:19.331Z,17.33
2017-12-24T14:32:46.262Z,17.23
2017-12-24T14:35:13.142Z,16.90
2017-12-24T14:37:40.315Z,16.30
2017-12-24T14:40:08.233Z,18.30
2017-12-24T14:42:36.107Z,17.37
2017-12-24T14:45:03.062Z,16.07
2017-12-24T14:47:30.279Z,17.90
2017-12-24T14:49:58.222Z,24.77
2017-12-24T14:52:25.202Z,24.33
2017-12-24T14:54:52.034Z,24.73
2017-12-24T14:57:18.923Z,25.43
2017-12-24T14:59:46.110Z,26.70
2017-12-24T15:02:13.362Z,22.83
2017-12-24T15:04:40.415Z,24.17
2017-12-24T15:07:07.558Z,24.17
2017-12-24T15:09:35.520Z,24.77
2017-12-24T15:12:02.522Z,23.67
2017-12-24T15:14:30.386Z,23.70
2017-12-24T15:16:57.324Z,25.07
2017-12-24T15:19:24.938Z,23.95
2017-12-24T15:21:52.015Z,25.48
2017-12-24T15:24:19.070Z,28.02
2017-12-24T15:26:46.683Z,27.00
2017-12-24T15:29:13.574Z,28.10
2017-12-24T15:31:41.182Z,24.48
2017-12-24T15:34:08.054Z,28.08
2017-12-24T15:36:34.906Z,26.65
2017-12-24T15:39:01.906Z,26.33
2017-12-24T15:41:28.787Z,27.20
2017-12-24T15:43:55.671Z,27.30
2017-12-24T15:46:23.278Z,31.35
2017-12-24T15:48:50.138Z,30.55
2017-12-24T15:51:17.787Z,30.90
2017-12-24T15:53:44.646Z,32.97
2017-12-24T15:56:11.515Z,32.97
2017-12-24T15:58:38.351Z,34.80
2017-12-24T16:01:05.254Z,34.60
2017-12-24T16:03:32.131Z,36.88
2017-12-24T16:05:59.022Z,32.65
2017-12-24T16:08:25.891Z,35.53
2017-12-24T16:10:52.791Z,37.42
2017-12-24T16:13:20.426Z,33.83
2017-12-24T16:15:47.290Z,36.15
2017-12-24T16:18:14.924Z,32.60
2017-12-24T16:20:41.812Z,31.50
2017-12-24T16:23:08.663Z,30.25
2017-12-24T16:25:35.491Z,29.40
2017-12-24T16:28:02.382Z,27.55
2017-12-24T16:30:29.263Z,26.73
2017-12-24T16:32:56.154Z,27.62
2017-12-24T16:35:23.034Z,27.42
2017-12-24T16:37:49.882Z,25.73
2017-12-24T16:40:16.743Z,26.50
2017-12-24T16:42:44.354Z,28.87
2017-12-24T16:45:11.401Z,27.58
2017-12-24T16:47:39.038Z,30.05
2017-12-24T16:50:05.882Z,26.30
2017-12-24T16:52:33.052Z,27.17
2017-12-24T16:55:00.158Z,27.98
2017-12-24T16:57:27.135Z,27.25
2017-12-24T16:59:54.019Z,29.27
2017-12-24T17:02:20.894Z,26.42
2017-12-24T17:04:47.742Z,28.25
2017-12-24T17:07:14.650Z,26.30
2017-12-24T17:09:41.496Z,25.95
2017-12-24T17:12:08.362Z,28.27
2017-12-24T17:14:35.972Z,31.42
2017-12-24T17:17:02.851Z,31.65
2017-12-24T17:19:29.743Z,35.22
2017-12-24T17:21:56.598Z,42.72
2017-12-24T17:24:23.447Z,44.15
2017-12-24T17:26:50.310Z,41.65
2017-12-24T17:29:17.170Z,39.35
2017-12-24T17:31:44.829Z,39.33
2017-12-24T17:34:11.671Z,41.75
2017-12-24T17:36:38.566Z,45.20
2017-12-24T17:39:05.402Z,40.95
2017-12-24T17:41:32.242Z,39.97
2017-12-24T17:43:59.122Z,36.40
2017-12-24T17:46:26.687Z,36.20
2017-12-24T17:48:53.557Z,35.50
2017-12-24T17:51:21.154Z,33.03
2017-12-24T17:53:48.010Z,30.23
2017-12-24T17:56:14.874Z,32.03
2017-12-24T17:58:41.674Z,32.72
2017-12-24T18:01:08.579Z,31.12
2017-12-24T18:03:35.418Z,31.23
2017-12-24T18:06:02.264Z,27.52
2017-12-24T18:08:29.895Z,29.60
2017-12-24T18:10:56.754Z,30.60
2017-12-24T18:13:23.613Z,26.33
2017-12-24T18:15:50.462Z,29.23
2017-12-24T18:18:18.077Z,28.87
2017-12-24T18:20:44.955Z,32.25
2017-12-24T18:23:11.795Z,32.92
2017-12-24T18:25:38.679Z,29.27
2017-12-24T18:28:08.943Z,32.15
2017-12-24T18:30:35.935Z,29.15
2017-12-24T18:33:03.514Z,32.03
2017-12-24T18:35:30.638Z,34.08
2017-12-24T18:37:58.337Z,34.17
2017-12-24T18:40:25.287Z,34.53
2017-12-24T18:42:52.150Z,34.38
2017-12-24T18:45:19.947Z,35.33
2017-12-24T18:47:47.929Z,30.25
2017-12-24T18:50:14.830Z,29.40
2017-12-24T18:52:41.794Z,30.92
2017-12-24T18:55:08.626Z,29.30
2017-12-24T18:57:35.487Z,28.75
2017-12-24T19:00:03.222Z,27.58
2017-12-24T19:02:30.301Z,23.12
2017-12-24T19:04:57.131Z,23.87
2017-12-24T19:07:24.096Z,25.45
2017-12-24T19:09:51.666Z,26.87
2017-12-24T19:12:19.398Z,26.55
2017-12-24T19:14:46.414Z,27.62
2017-12-24T19:17:13.266Z,27.42
2017-12-24T19:19:40.133Z,27.15
2017-12-24T19:22:07.114Z,28.08
2017-12-24T19:24:33.938Z,31.10
2017-12-24T19:27:01.622Z,33.33
2017-12-24T19:29:28.466Z,34.00
2017-12-24T19:31:55.450Z,29.75
2017-12-24T19:34:22.302Z,34.50
2017-12-24T19:36:49.146Z,34.00
2017-12-24T19:39:16.117Z,33.35
2017-12-24T19:41:43.703Z,31.15
2017-12-24T19:44:10.603Z,32.22
2017-12-24T19:46:37.454Z,30.52
2017-12-24T19:49:04.299Z,28.87
2017-12-24T19:51:31.179Z,30.15
2017-12-24T19:53:58.070Z,33.03
2017-12-24T19:56:24.910Z,28.05
2017-12-24T19:58:51.821Z,28.27
2017-12-24T20:01:18.682Z,27.98
2017-12-24T20:03:45.571Z,26.98
2017-12-24T20:06:12.397Z,26.73
2017-12-24T20:08:39.254Z,28.02
2017-12-24T20:11:06.107Z,28.08
2017-12-24T20:13:32.971Z,29.10
2017-12-24T20:15:59.799Z,25.17
2017-12-24T20:18:26.698Z,26.95
2017-12-24T20:20:53.530Z,29.48
2017-12-24T20:23:20.433Z,28.12
2017-12-24T20:25:47.271Z,28.35
2017-12-24T20:28:14.862Z,28.92
2017-12-24T20:30:41.726Z,28.02
2017-12-24T20:33:08.563Z,28.17
2017-12-24T20:35:36.226Z,26.90
2017-12-24T20:38:03.094Z,28.23
2017-12-24T20:40:29.977Z,29.00
2017-12-24T20:42:56.822Z,24.63
2017-12-24T20:45:24.434Z,26.48
2017-12-24T20:47:51.298Z,28.85
2017-12-24T20:50:18.944Z,27.20
2017-12-24T20:52:46.600Z,27.20
2017-12-24T20:55:13.472Z,27.45
2017-12-24T20:57:40.327Z,27.62
2017-12-24T21:00:07.174Z,28.92
2017-12-24T21:02:34.030Z,30.60
2017-12-24T21:05:00.857Z,32.45
2017-12-24T21:07:27.731Z,32.65
2017-12-24T21:09:54.601Z,34.67
2017-12-24T21:12:21.439Z,35.25
2017-12-24T21:14:48.287Z,33.38
2017-12-24T21:17:15.163Z,35.20
2017-12-24T21:19:42.003Z,32.53
2017-12-24T21:22:09.599Z,33.72
2017-12-24T21:24:36.444Z,37.17
2017-12-24T21:27:03.303Z,34.38
2017-12-24T21:29:30.174Z,33.75
2017-12-24T21:31:57.022Z,36.50
2017-12-24T21:34:24.664Z,34.25
2017-12-24T21:36:51.555Z,33.78
2017-12-24T21:39:18.417Z,34.60
2017-12-24T21:41:45.281Z,32.55
2017-12-24T21:44:12.134Z,36.42
2017-12-24T21:46:38.971Z,33.70
2017-12-24T21:49:05.830Z,39.85
2017-12-24T21:51:32.682Z,38.90
2017-12-24T21:53:59.546Z,41.17
2017-12-24T21:56:27.129Z,40.88
2017-12-24T21:58:53.975Z,41.15
2017-12-24T22:01:20.829Z,38.75
2017-12-24T22:03:47.693Z,41.75
2017-12-24T22:06:14.585Z,42.30
2017-12-24T22:08:41.450Z,41.60
2017-12-24T22:11:08.313Z,43.15
2017-12-24T22:13:35.181Z,42.97
2017-12-24T22:16:02.825Z,39.85
2017-12-24T22:18:29.669Z,41.97
2017-12-24T22:20:56.486Z,46.35
2017-12-24T22:23:23.354Z,46.63
2017-12-24T22:25:50.998Z,46.30
2017-12-24T22:28:17.842Z,46.65
2017-12-24T22:30:44.702Z,44.63
2017-12-24T22:33:11.595Z,42.22
2017-12-24T22:35:39.190Z,42.50
2017-12-24T22:38:06.019Z,41.00
2017-12-24T22:40:32.859Z,40.22
2017-12-24T22:42:59.722Z,41.05
2017-12-24T22:45:26.572Z,39.75
2017-12-24T22:47:54.184Z,41.13
2017-12-24T22:50:21.385Z,37.70
2017-12-24T22:52:48.246Z,37.33
2017-12-24T22:55:15.118Z,35.58
2017-12-24T22:57:41.986Z,35.83
2017-12-24T23:00:08.886Z,35.60
2017-12-24T23:02:36.590Z,32.60
2017-12-24T23:05:03.501Z,29.95
2017-12-24T23:07:31.110Z,32.42
2017-12-24T23:09:57.998Z,30.35
2017-12-24T23:12:25.638Z,30.23
2017-12-24T23:14:52.489Z,26.85
2017-12-24T23:17:19.347Z,26.37
2017-12-24T23:19:46.222Z,24.55
2017-12-24T23:22:13.105Z,23.62
2017-12-24T23:24:39.944Z,24.75
2017-12-24T23:27:06.817Z,25.77
2017-12-24T23:29:34.393Z,24.33
2017-12-24T23:32:02.038Z,23.52
2017-12-24T23:34:29.634Z,23.98
2017-12-24T23:36:56.482Z,23.87
2017-12-24T23:39:23.344Z,24.90
2017-12-24T23:41:50.211Z,21.50
2017-12-24T23:44:17.086Z,21.70
2017-12-24T23:46:43.980Z,20.98
2017-12-24T23:49:10.845Z,19.55
2017-12-24T23:51:37.693Z,18.58
2017-12-24T23:54:04.606Z,19.17
2017-12-24T23:56:31.463Z,20.15
2017-12-24T23:58:58.322Z,18.90
